Etobicoke, Canada
Current Conditions -  °F | °C
As of 11:00 PM on Sunday 25 Jan 2015 (Local Time) from CYYZ Reporting Station
Broken Clouds Broken Clouds  
Wind Chill: -3°   Ceiling: 20000
Heat Index: 10°   Visibility: 15mi
Dew Point:   Wind: 10mph
Humidity: 67%   Direction: 10°N
Pressure: 30.06"   Gusts: NA
Location:  43.64°N, 79.57°W
Report Text: CYYZ 260400Z 01009KT 15SM BKN200 M12/M17 A3006 RMK CI7 SLP192
Loading
Personal Weather Stations






























Interactive Weather Map New forecast layout! Learn more

10-Day Weather Forecast

Advertisements
Track Severe Weather on mobile